Forside
METAR-TAF:

METAR-TAF

Lufthavne :

Nassau, Bahamas

Breddekreds: 25-03N, længdekreds: 077-28W, højde: 3 m

Aktuelle vejr

Denne rapport blev lavet for 1 time og 0 minutter siden, kl. 09:00 UTC
Vind 2 kt fra varierende retninger
Temperatur 23°C
Fugtighed 94%
Tryk 1014 hPa
Sigt 10 km eller mere
Nogle få skyer i en højde af 1800 ft

METAR: MYNN 160900Z VRB02KT 9999 FEW018 23/22 A2993

Tid: 05:00 (10:00 UTC)

Vejrudsigter

Denne rapport blev lavet for 5 timer og 0 minutter siden, kl. 05:00 UTC
Foreløbig gælder fra 16 på 06 UTC til 17 på 06 UTC
Vind kt fra nord
Sigt 10 km eller mere
Nogle få skyer i en højde af 2000 ft
Sandsynlighed 30% :
Midlertidig
fra 16 på 10 UTC til 16 på 16 UTC
Sigt: 9000 m
Nogle få skyer i en højde af 1500 ft, Cumulonimbus.
Spredte skyer i en højde af 1800 ft
regnbyger

TAF: MYNN 160500Z 1606/1706 00000KT 9999 FEW020 PROB30 TEMPO 1610/1616 9000 SHRA FEW015CB SCT018

Vejrobservationer og prognoser fra mere end 4000 lufthavne (METAR og TAF).

De gule og røde prikker repræsenterer de meteorologiske stationer.

Flyt musen over at se navnet på stationen.

Så klik over at se vejr observationer og prognoser.

At skifte det kort: Klik på de grønne knapper med et sort kors for at zoome ind; på den grønne knap med en bindestreg for at zoome ud; eller på de grønne pile for tilstødende kort.


METAR-TAF: